Interior, SD (57750)

9:23 AM MST on December 07, 2016 (GMT -0700)
Philip | | Change Station

Elev 2208 ft 44.05 °N, 101.60 °W | Updated 28 minutes ago

Clear
Clear
7 °F
Feels Like -12 °F
N
17
Wind Variable Wind from WNW
Gusts 25 mph

Today
High -- | Low -- °F
--% Chance of Precip.
Yesterday
High -- | Low -- °F
Precip. -- in
Pressure 30.50 in
Visibility 10.0 miles
Clouds Clear
Windchill -12 °F
Dew Point -3 °F
Humidity 64%
Rainfall 0.00 in
Snow Depth Not available.
7:08 AM 4:10 PM
First Quarter, 53% visible
METAR KPHP 071555Z AUTO 30015G22KT 10SM CLR M14/M19 A3036 RMK AO2 SLP326 T11391194
Pressure 30.50 in
Visibility 10.0 miles
Clouds Clear
Windchill -12 °F
Dew Point -3 °F
Humidity 64%
Rainfall 0.00 in
Snow Depth Not available.
7:08 AM 4:10 PM
First Quarter, 53% visible
METAR KPHP 071555Z AUTO 30015G22KT 10SM CLR M14/M19 A3036 RMK AO2 SLP326 T11391194

10-Day Weather Forecast

Almanac

Astronomy

Dec. 07, 2016 Rise Set
Actual Time
Civil Twilight
Nautical Twilight
Astronomical Twilight
Moon
Length of Visible Light
Length of Day
Tomorrow will be .
, % of the Moon is Illuminated

Today's Extremes

State Highs State Lows

Community

WunderPhotos

Upload Photos

1,956,132 photos uploaded!

WunderBlog® & News

Nearby

Air Quality

  Air Quality AQ Index Pollutant
Not available.

Snow Depth

Station Depth Elevation

Earthquake Activity

City Distance Mag. Time & Date
Minimum magnitude displayed is 2.5.

Coastal Water Temperatures

Place Temperature

Stations

Nearby Weather Stations

Station Location Temp. Windchill Dew Point Humidity Wind Precip. Elev Updated Type
                   

Watches & Warnings

There are currently no watches in effect.